Terminal Aerodrome Forecast
Issued by NWS Sterling, VA

Current Version | Previous Version | Graphics & Text | Print | Product List | Glossary On
Versions: 1 2 3 4 5 6 7 8 9 10 11 12 13 14 15 16 17 18 19 20 21 22 23 24 25
000
FTUS41 KLWX 081100
TAFDCA
TAF
KDCA 081140Z 0812/0912 22008KT P6SM BKN130
     FM081600 23012G20KT P6SM SCT130
     FM081900 22012G20KT P6SM VCTS BKN050CB
     FM090100 22010KT P6SM VCTS BKN050CB
     FM090600 25007KT P6SM BKN060=

USA.gov is the U.S. government's official web portal to all federal, state and local government web resources and services.